AirportLTBA
Updated 00:50 UTC
Current time 01:35 UTC
Taken 45 min. ago
Wind 350° / 7 m/s (14 KT)
Visibility 10 km
Clouds Few
Temp. 23°C (73°F)
Dew point 18°C (64°F)
Humidity 74%
Pressure 1011 hPa (29.85 in Hg)
Full Metar Code:
LTBA 220050Z 35014KT 9999 FEW035 23/18 Q1011 NOSIG